createdAt,value
2018-03-27T00:00:38.935Z,4.40
2018-03-27T00:03:05.350Z,4.40
2018-03-27T00:05:31.642Z,4.30
2018-03-27T00:07:57.945Z,4.20
2018-03-27T00:10:24.222Z,4.20
2018-03-27T00:12:50.525Z,4.50
2018-03-27T00:15:17.495Z,4.70
2018-03-27T00:17:43.815Z,4.70
2018-03-27T00:20:10.854Z,4.60
2018-03-27T00:22:38.114Z,4.60
2018-03-27T00:25:04.453Z,4.50
2018-03-27T00:27:43.828Z,4.70
2018-03-27T00:30:23.252Z,4.70
2018-03-27T00:33:01.946Z,4.70
2018-03-27T00:35:40.397Z,4.80
2018-03-27T00:38:19.181Z,4.90
2018-03-27T00:40:45.952Z,4.80
2018-03-27T00:43:13.224Z,4.80
2018-03-27T00:45:39.485Z,4.80
2018-03-27T00:48:05.977Z,4.90
2018-03-27T00:50:32.216Z,4.80
2018-03-27T00:52:58.524Z,4.70
2018-03-27T00:55:24.823Z,4.70
2018-03-27T00:57:51.387Z,4.60
2018-03-27T01:00:17.779Z,4.50
2018-03-27T01:02:44.065Z,4.50
2018-03-27T01:05:10.369Z,4.50
2018-03-27T01:07:36.614Z,4.40
2018-03-27T01:10:02.866Z,4.40
2018-03-27T01:12:29.130Z,4.50
2018-03-27T01:14:56.210Z,4.50
2018-03-27T01:17:22.456Z,4.50
2018-03-27T01:19:48.826Z,4.50
2018-03-27T01:22:15.051Z,4.50
2018-03-27T01:24:41.340Z,4.90
2018-03-27T01:27:08.346Z,5.00
2018-03-27T01:29:34.578Z,5.00
2018-03-27T01:32:00.810Z,5.10
2018-03-27T01:34:27.113Z,4.90
2018-03-27T01:36:53.383Z,4.90
2018-03-27T01:39:20.402Z,4.60
2018-03-27T01:41:46.692Z,4.60
2018-03-27T01:44:13.921Z,4.40
2018-03-27T01:46:40.178Z,4.40
2018-03-27T01:49:07.156Z,4.40
2018-03-27T01:51:33.426Z,4.40
2018-03-27T01:53:59.656Z,4.40
2018-03-27T01:56:26.001Z,4.20
2018-03-27T01:58:52.329Z,4.10
2018-03-27T02:01:18.627Z,4.00
2018-03-27T02:03:44.902Z,3.90
2018-03-27T02:06:11.894Z,3.90
2018-03-27T02:08:38.146Z,3.90
2018-03-27T02:11:10.438Z,4.00
2018-03-27T02:13:42.780Z,4.20
2018-03-27T02:16:15.094Z,4.10
2018-03-27T02:18:47.471Z,4.20
2018-03-27T02:21:19.811Z,4.30
2018-03-27T02:23:46.874Z,4.00
2018-03-27T02:26:13.878Z,4.00
2018-03-27T02:28:40.173Z,3.90
2018-03-27T02:31:06.384Z,3.90
2018-03-27T02:33:32.735Z,3.90
2018-03-27T02:35:59.033Z,3.90
2018-03-27T02:38:25.370Z,3.90
2018-03-27T02:40:51.697Z,4.00
2018-03-27T02:43:18.685Z,3.90
2018-03-27T02:45:44.972Z,3.90
2018-03-27T02:48:11.201Z,3.90
2018-03-27T02:50:37.451Z,3.90
2018-03-27T02:53:03.675Z,3.80
2018-03-27T02:55:29.913Z,3.80
2018-03-27T02:57:56.226Z,3.80
2018-03-27T03:00:22.460Z,3.80
2018-03-27T03:02:48.712Z,3.80
2018-03-27T03:05:14.950Z,3.90
2018-03-27T03:07:41.205Z,4.00
2018-03-27T03:10:07.474Z,4.40
2018-03-27T03:12:33.775Z,4.40
2018-03-27T03:15:00.161Z,4.30
2018-03-27T03:17:26.448Z,4.40
2018-03-27T03:19:53.442Z,4.20
2018-03-27T03:22:19.758Z,4.10
2018-03-27T03:24:46.017Z,4.10
2018-03-27T03:27:12.276Z,4.00
2018-03-27T03:29:38.573Z,4.00
2018-03-27T03:32:04.820Z,4.00
2018-03-27T03:34:31.808Z,3.90
2018-03-27T03:36:58.034Z,3.90
2018-03-27T03:39:24.297Z,4.00
2018-03-27T03:41:50.564Z,4.00
2018-03-27T03:44:16.920Z,4.20
2018-03-27T03:46:43.208Z,4.10
2018-03-27T03:49:09.590Z,4.10
2018-03-27T03:51:35.912Z,4.00
2018-03-27T03:54:02.201Z,3.90
2018-03-27T03:56:29.177Z,3.80
2018-03-27T03:58:55.449Z,3.80
2018-03-27T04:01:21.761Z,3.90
2018-03-27T04:03:48.224Z,4.20
2018-03-27T04:06:14.547Z,4.20
2018-03-27T04:08:40.818Z,4.10
2018-03-27T04:11:07.089Z,4.00
2018-03-27T04:13:33.366Z,3.90
2018-03-27T04:16:00.398Z,4.10
2018-03-27T04:18:26.718Z,4.10
2018-03-27T04:20:52.990Z,3.90
2018-03-27T04:23:19.269Z,3.80
2018-03-27T04:25:45.547Z,3.90
2018-03-27T04:28:11.838Z,3.70
2018-03-27T04:30:38.813Z,3.80
2018-03-27T04:33:05.121Z,3.70
2018-03-27T04:35:31.356Z,3.80
2018-03-27T04:37:57.743Z,3.90
2018-03-27T04:40:24.059Z,4.00
2018-03-27T04:42:51.062Z,4.30
2018-03-27T04:45:17.332Z,4.30
2018-03-27T04:47:43.523Z,4.20
2018-03-27T04:50:09.793Z,4.10
2018-03-27T04:52:36.120Z,4.00
2018-03-27T04:55:02.491Z,3.90
2018-03-27T04:57:28.826Z,3.80
2018-03-27T04:59:55.085Z,3.80
2018-03-27T05:02:21.440Z,3.80
2018-03-27T05:04:48.467Z,3.70
2018-03-27T05:07:14.762Z,3.70
2018-03-27T05:09:41.085Z,3.60
2018-03-27T05:12:07.393Z,3.60
2018-03-27T05:14:33.718Z,3.50
2018-03-27T05:17:00.023Z,3.50
2018-03-27T05:19:27.067Z,3.50
2018-03-27T05:21:53.489Z,3.50
2018-03-27T05:24:19.843Z,3.50
2018-03-27T05:26:46.141Z,3.50
2018-03-27T05:29:16.026Z,3.50
2018-03-27T05:31:42.413Z,3.50
2018-03-27T05:34:08.655Z,3.50
2018-03-27T05:36:34.960Z,3.50
2018-03-27T05:39:01.263Z,3.80
2018-03-27T05:41:27.552Z,3.90
2018-03-27T05:43:53.890Z,3.90
2018-03-27T05:46:21.042Z,3.80
2018-03-27T05:48:47.375Z,3.80
2018-03-27T05:51:13.749Z,3.90
2018-03-27T05:53:40.023Z,3.90
2018-03-27T05:56:06.321Z,4.00
2018-03-27T05:58:32.580Z,4.20
2018-03-27T06:00:58.931Z,4.50
2018-03-27T06:03:25.984Z,4.60
2018-03-27T06:05:52.434Z,4.60
2018-03-27T06:08:18.856Z,4.60
2018-03-27T06:10:45.126Z,4.50
2018-03-27T06:13:11.428Z,4.50
2018-03-27T06:15:37.662Z,4.40
2018-03-27T06:18:03.953Z,4.40
2018-03-27T06:20:30.254Z,4.40
2018-03-27T06:22:56.563Z,4.40
2018-03-27T06:25:22.914Z,4.30
2018-03-27T06:27:49.461Z,4.20
2018-03-27T06:30:16.887Z,4.10
2018-03-27T06:32:43.214Z,4.10
2018-03-27T06:35:09.540Z,4.00
2018-03-27T06:37:35.855Z,4.10
2018-03-27T06:40:02.286Z,4.10
2018-03-27T06:42:29.430Z,4.10
2018-03-27T06:44:56.422Z,4.10
2018-03-27T06:47:23.661Z,4.20
2018-03-27T06:49:50.517Z,4.20
2018-03-27T06:52:18.101Z,4.20
2018-03-27T06:54:44.385Z,4.10
2018-03-27T06:57:10.716Z,4.30
2018-03-27T06:59:37.032Z,4.30
2018-03-27T07:02:04.014Z,4.30
2018-03-27T07:04:30.326Z,4.30
2018-03-27T07:06:56.572Z,4.40
2018-03-27T07:09:23.724Z,4.60
2018-03-27T07:11:50.642Z,4.70
2018-03-27T07:14:16.964Z,4.60
2018-03-27T07:16:43.240Z,4.80
2018-03-27T07:19:09.500Z,4.90
2018-03-27T07:21:35.820Z,4.90
2018-03-27T07:24:02.114Z,5.20
2018-03-27T07:26:29.150Z,5.60
2018-03-27T07:28:56.157Z,5.60
2018-03-27T07:31:22.419Z,5.50
2018-03-27T07:33:48.819Z,5.70
2018-03-27T07:36:15.119Z,5.70
2018-03-27T07:38:42.142Z,5.60
2018-03-27T07:41:11.581Z,5.60
2018-03-27T07:43:37.855Z,5.50
2018-03-27T07:46:04.115Z,5.50
2018-03-27T07:48:31.149Z,5.70
2018-03-27T07:50:57.447Z,5.70
2018-03-27T07:53:23.714Z,5.60
2018-03-27T07:55:50.760Z,5.60
2018-03-27T07:58:17.028Z,5.50
2018-03-27T08:00:43.329Z,5.60
2018-03-27T08:03:09.599Z,5.50
2018-03-27T08:05:35.890Z,5.40
2018-03-27T08:08:02.158Z,5.50
2018-03-27T08:10:28.442Z,5.40
2018-03-27T08:12:54.713Z,5.60
2018-03-27T08:15:20.989Z,5.60
2018-03-27T08:17:47.274Z,5.60
2018-03-27T08:20:13.556Z,5.50
2018-03-27T08:22:40.604Z,5.70
2018-03-27T08:25:07.596Z,5.90
2018-03-27T08:27:34.059Z,5.90
2018-03-27T08:30:00.350Z,6.40
2018-03-27T08:32:27.340Z,6.80
2018-03-27T08:34:53.608Z,6.80
2018-03-27T08:37:19.916Z,6.80
2018-03-27T08:39:46.177Z,6.70
2018-03-27T08:42:12.510Z,6.80
2018-03-27T08:44:38.919Z,6.80
2018-03-27T08:47:06.027Z,6.90
2018-03-27T08:49:32.304Z,6.90
2018-03-27T08:51:58.564Z,6.90
2018-03-27T08:54:25.585Z,7.60
2018-03-27T08:56:51.837Z,7.60
2018-03-27T08:59:18.108Z,7.90
2018-03-27T09:01:45.144Z,8.40
2018-03-27T09:04:11.394Z,8.30
2018-03-27T09:06:37.675Z,8.20
2018-03-27T09:09:03.995Z,8.10
2018-03-27T09:11:30.235Z,8.00
2018-03-27T09:13:57.241Z,8.20
2018-03-27T09:16:23.578Z,8.20
2018-03-27T09:18:49.887Z,8.80
2018-03-27T09:21:16.886Z,9.10
2018-03-27T09:23:43.154Z,9.10
2018-03-27T09:26:09.441Z,9.00
2018-03-27T09:28:36.479Z,9.10
2018-03-27T09:31:02.705Z,9.00
2018-03-27T09:33:28.950Z,9.30
2018-03-27T09:35:55.234Z,9.30
2018-03-27T09:38:21.578Z,9.70
2018-03-27T09:40:47.814Z,9.80
2018-03-27T09:43:14.053Z,9.90
2018-03-27T09:45:40.288Z,10.60
2018-03-27T09:48:07.285Z,10.60
2018-03-27T09:50:33.556Z,10.60
2018-03-27T09:52:59.819Z,10.40
2018-03-27T09:55:26.865Z,9.80
2018-03-27T09:57:53.155Z,9.80
2018-03-27T10:00:25.812Z,9.80
2018-03-27T10:02:52.846Z,10.40
2018-03-27T10:05:19.552Z,10.40
2018-03-27T10:07:45.920Z,11.50
2018-03-27T10:10:12.166Z,12.40
2018-03-27T10:12:38.410Z,12.70
2018-03-27T10:15:04.738Z,12.70
2018-03-27T10:17:31.127Z,12.70
2018-03-27T10:19:57.444Z,12.40
2018-03-27T10:22:23.782Z,12.10
2018-03-27T10:24:50.260Z,12.50
2018-03-27T10:27:17.517Z,12.70
2018-03-27T10:29:43.778Z,12.70
2018-03-27T10:32:10.855Z,11.70
2018-03-27T10:34:37.250Z,11.70
2018-03-27T10:37:03.672Z,11.30
2018-03-27T10:39:30.029Z,11.20
2018-03-27T10:41:56.303Z,12.00
2018-03-27T10:44:23.650Z,12.30
2018-03-27T10:46:50.277Z,12.20
2018-03-27T10:49:16.604Z,11.90
2018-03-27T10:51:42.952Z,11.90
2018-03-27T10:54:09.255Z,12.60
2018-03-27T10:56:36.267Z,13.30
2018-03-27T10:59:02.678Z,13.30
2018-03-27T11:01:29.722Z,13.30
2018-03-27T11:03:56.903Z,13.20
2018-03-27T11:06:23.886Z,13.10
2018-03-27T11:08:50.397Z,13.10
2018-03-27T11:11:17.660Z,12.30
2018-03-27T11:13:43.964Z,12.20
2018-03-27T11:16:10.332Z,11.80
2018-03-27T11:18:36.622Z,11.30
2018-03-27T11:21:02.878Z,10.90
2018-03-27T11:23:36.354Z,10.90
2018-03-27T11:26:03.049Z,11.20
2018-03-27T11:28:29.382Z,12.00
2018-03-27T11:30:55.716Z,12.40
2018-03-27T11:33:22.152Z,12.20
2018-03-27T11:35:48.920Z,12.60
2018-03-27T11:38:16.033Z,12.30
2018-03-27T11:40:43.053Z,11.50
2018-03-27T11:43:09.382Z,11.50
2018-03-27T11:45:35.760Z,10.90
2018-03-27T11:48:02.054Z,10.50
2018-03-27T11:50:28.368Z,9.90
2018-03-27T11:52:54.638Z,9.60
2018-03-27T11:55:21.186Z,9.50
2018-03-27T11:57:48.948Z,9.40
2018-03-27T12:00:15.430Z,9.70
2018-03-27T12:02:41.783Z,9.50
2018-03-27T12:05:08.254Z,9.10
2018-03-27T12:07:34.551Z,8.90
2018-03-27T12:10:04.522Z,9.10
2018-03-27T12:12:30.818Z,9.30
2018-03-27T12:14:57.174Z,9.50
2018-03-27T12:17:23.650Z,9.80
2018-03-27T12:19:50.002Z,10.10
2018-03-27T12:22:16.294Z,10.30
2018-03-27T12:24:43.339Z,10.70
2018-03-27T12:27:10.377Z,10.60
2018-03-27T12:29:36.762Z,10.60
2018-03-27T12:32:03.366Z,10.40
2018-03-27T12:34:29.707Z,9.90
2018-03-27T12:36:56.113Z,9.70
2018-03-27T12:39:22.624Z,9.70
2018-03-27T12:41:49.236Z,9.70
2018-03-27T12:44:15.694Z,9.50
2018-03-27T12:46:42.065Z,9.40
2018-03-27T12:49:08.383Z,9.20
2018-03-27T12:51:34.737Z,9.20
2018-03-27T12:54:01.112Z,9.20
2018-03-27T12:56:28.212Z,8.80
2018-03-27T12:58:54.546Z,8.80
2018-03-27T13:01:21.264Z,8.70
2018-03-27T13:03:48.728Z,8.70
2018-03-27T13:06:15.189Z,8.70
2018-03-27T13:08:42.310Z,9.20
2018-03-27T13:11:08.636Z,9.10
2018-03-27T13:13:35.021Z,9.40
2018-03-27T13:16:01.524Z,9.70
2018-03-27T13:18:27.843Z,10.10
2018-03-27T13:20:54.216Z,10.10
2018-03-27T13:23:20.915Z,9.80
2018-03-27T13:25:47.707Z,9.70
2018-03-27T13:28:14.098Z,10.20
2018-03-27T13:30:40.390Z,10.70
2018-03-27T13:33:06.706Z,11.00
2018-03-27T13:35:33.707Z,11.40
2018-03-27T13:37:59.938Z,11.40
2018-03-27T13:40:26.202Z,11.60
2018-03-27T13:42:52.586Z,12.10
2018-03-27T13:45:19.659Z,12.20
2018-03-27T13:47:46.004Z,12.20
2018-03-27T13:50:12.243Z,11.90
2018-03-27T13:52:39.253Z,11.70
2018-03-27T13:55:06.281Z,12.20
2018-03-27T13:57:32.570Z,12.20
2018-03-27T13:59:58.838Z,12.70
2018-03-27T14:02:25.909Z,11.90
2018-03-27T14:04:52.266Z,11.80
2018-03-27T14:07:18.703Z,11.70
2018-03-27T14:09:45.043Z,11.60
2018-03-27T14:12:11.385Z,11.90
2018-03-27T14:14:38.450Z,11.80
2018-03-27T14:17:04.803Z,11.70
2018-03-27T14:19:31.110Z,11.20
2018-03-27T14:21:57.400Z,10.90
2018-03-27T14:24:23.685Z,10.70
2018-03-27T14:26:50.103Z,10.40
2018-03-27T14:29:16.362Z,9.90
2018-03-27T14:31:42.707Z,9.80
2018-03-27T14:34:08.940Z,9.60
2018-03-27T14:36:35.217Z,9.40
2018-03-27T14:39:02.273Z,10.00
2018-03-27T14:41:28.541Z,10.00
2018-03-27T14:43:55.726Z,10.20
2018-03-27T14:46:22.054Z,10.20
2018-03-27T14:48:48.391Z,10.60
2018-03-27T14:51:14.788Z,11.10
2018-03-27T14:53:41.082Z,11.50
2018-03-27T14:56:07.418Z,11.70
2018-03-27T14:58:34.423Z,12.00
2018-03-27T15:01:00.684Z,11.90
2018-03-27T15:03:27.057Z,11.60
2018-03-27T15:05:53.802Z,11.50
2018-03-27T15:08:21.022Z,11.50
2018-03-27T15:10:48.130Z,11.10
2018-03-27T15:13:15.151Z,11.20
2018-03-27T15:15:41.393Z,11.20
2018-03-27T15:18:07.699Z,11.40
2018-03-27T15:20:34.058Z,11.50
2018-03-27T15:23:00.305Z,11.40
2018-03-27T15:25:26.568Z,10.90
2018-03-27T15:27:53.032Z,10.40
2018-03-27T15:30:19.484Z,10.00
2018-03-27T15:32:46.520Z,9.60
2018-03-27T15:35:12.816Z,9.60
2018-03-27T15:37:39.145Z,9.60
2018-03-27T15:40:05.461Z,9.70
2018-03-27T15:42:31.707Z,9.80
2018-03-27T15:44:58.010Z,10.30
2018-03-27T15:47:24.335Z,10.70
2018-03-27T15:49:50.698Z,10.90
2018-03-27T15:52:17.475Z,10.70
2018-03-27T15:54:44.508Z,10.40
2018-03-27T15:57:10.874Z,10.30
2018-03-27T15:59:37.117Z,10.20
2018-03-27T16:02:03.423Z,10.00
2018-03-27T16:04:29.670Z,9.80
2018-03-27T16:06:56.031Z,9.70
2018-03-27T16:09:22.449Z,9.50
2018-03-27T16:11:48.905Z,9.30
2018-03-27T16:14:15.223Z,9.10
2018-03-27T16:16:41.488Z,8.90
2018-03-27T16:19:07.742Z,8.90
2018-03-27T16:21:33.991Z,8.80
2018-03-27T16:24:00.304Z,8.80
2018-03-27T16:26:26.776Z,8.80
2018-03-27T16:28:53.147Z,8.80
2018-03-27T16:31:19.672Z,8.80
2018-03-27T16:33:45.996Z,8.80
2018-03-27T16:36:12.370Z,8.90
2018-03-27T16:38:38.753Z,8.90
2018-03-27T16:41:05.095Z,8.90
2018-03-27T16:43:31.492Z,8.80
2018-03-27T16:45:57.733Z,8.80
2018-03-27T16:48:27.731Z,8.80
2018-03-27T16:50:54.007Z,8.80
2018-03-27T16:53:20.592Z,8.70
2018-03-27T16:55:47.103Z,8.70
2018-03-27T16:58:14.204Z,8.70
2018-03-27T17:00:41.181Z,8.60
2018-03-27T17:03:07.457Z,8.60
2018-03-27T17:05:33.742Z,8.60
2018-03-27T17:08:00.744Z,8.50
2018-03-27T17:10:27.045Z,8.40
2018-03-27T17:12:54.150Z,8.30
2018-03-27T17:15:21.117Z,8.30
2018-03-27T17:17:48.688Z,8.00
2018-03-27T17:20:15.111Z,8.10
2018-03-27T17:22:41.564Z,7.90
2018-03-27T17:25:07.839Z,7.80
2018-03-27T17:27:34.186Z,7.70
2018-03-27T17:30:00.515Z,7.60
2018-03-27T17:32:26.836Z,7.60
2018-03-27T17:34:53.269Z,7.50
2018-03-27T17:37:19.917Z,7.30
2018-03-27T17:39:46.334Z,7.30
2018-03-27T17:42:12.589Z,7.20
2018-03-27T17:44:39.686Z,7.10
2018-03-27T17:47:06.022Z,7.10
2018-03-27T17:49:32.303Z,7.00
2018-03-27T17:51:58.630Z,7.00
2018-03-27T17:54:24.906Z,7.10
2018-03-27T17:56:51.351Z,7.20
2018-03-27T17:59:18.977Z,7.00
2018-03-27T18:01:45.471Z,7.00
2018-03-27T18:04:11.977Z,6.90
2018-03-27T18:06:38.217Z,6.90
2018-03-27T18:09:04.601Z,6.80
2018-03-27T18:11:30.879Z,6.70
2018-03-27T18:13:57.970Z,6.50
2018-03-27T18:16:24.427Z,6.50
2018-03-27T18:18:52.305Z,6.50
2018-03-27T18:21:18.919Z,6.50
2018-03-27T18:23:45.324Z,6.40
2018-03-27T18:26:11.671Z,6.30
2018-03-27T18:28:38.002Z,6.30
2018-03-27T18:31:04.387Z,6.20
2018-03-27T18:33:31.371Z,6.30
2018-03-27T18:35:57.717Z,6.20
2018-03-27T18:38:24.058Z,6.30
2018-03-27T18:40:50.782Z,6.30
2018-03-27T18:43:17.443Z,6.40
2018-03-27T18:45:43.839Z,6.40
2018-03-27T18:48:10.188Z,6.50
2018-03-27T18:50:36.474Z,6.60
2018-03-27T18:53:03.561Z,6.70
2018-03-27T18:55:29.872Z,6.70
2018-03-27T18:57:56.255Z,6.70
2018-03-27T19:00:23.168Z,6.70
2018-03-27T19:02:50.857Z,6.60
2018-03-27T19:05:19.601Z,6.70
2018-03-27T19:07:46.140Z,6.70
2018-03-27T19:10:13.228Z,6.70
2018-03-27T19:12:39.536Z,6.70
2018-03-27T19:15:05.778Z,6.80
2018-03-27T19:17:32.043Z,6.70
2018-03-27T19:19:59.256Z,6.70
2018-03-27T19:22:25.831Z,6.50
2018-03-27T19:24:52.879Z,6.50
2018-03-27T19:27:20.653Z,6.40
2018-03-27T19:29:49.664Z,6.40
2018-03-27T19:32:16.312Z,6.30
2018-03-27T19:34:42.604Z,6.30
2018-03-27T19:37:09.053Z,6.20
2018-03-27T19:39:35.381Z,6.20
2018-03-27T19:42:01.854Z,6.10
2018-03-27T19:44:28.102Z,6.00
2018-03-27T19:46:55.114Z,5.90
2018-03-27T19:49:27.769Z,5.90
2018-03-27T19:51:54.283Z,5.90
2018-03-27T19:54:22.817Z,6.00
2018-03-27T19:56:49.803Z,6.00
2018-03-27T19:59:16.149Z,6.10
2018-03-27T20:01:42.447Z,6.20
2018-03-27T20:04:08.770Z,6.40
2018-03-27T20:06:35.028Z,6.50
2018-03-27T20:09:02.090Z,6.40
2018-03-27T20:11:30.468Z,6.40
2018-03-27T20:13:56.862Z,6.40
2018-03-27T20:16:24.646Z,6.40
2018-03-27T20:18:51.298Z,6.30
2018-03-27T20:21:18.860Z,6.20
2018-03-27T20:23:45.083Z,6.20
2018-03-27T20:26:11.729Z,6.20
2018-03-27T20:28:38.021Z,6.20
2018-03-27T20:31:04.536Z,6.20
2018-03-27T20:33:30.816Z,6.20
2018-03-27T20:35:57.121Z,6.20
2018-03-27T20:38:23.501Z,6.20
2018-03-27T20:40:49.903Z,6.20
2018-03-27T20:43:16.280Z,6.20
2018-03-27T20:45:42.666Z,6.10
2018-03-27T20:48:09.707Z,6.10
2018-03-27T20:50:36.004Z,6.00
2018-03-27T20:53:02.335Z,6.00
2018-03-27T20:55:28.571Z,6.00
2018-03-27T20:57:54.849Z,6.10
2018-03-27T21:00:21.192Z,6.10
2018-03-27T21:02:49.504Z,6.00
2018-03-27T21:05:15.848Z,6.00
2018-03-27T21:07:42.125Z,5.90
2018-03-27T21:10:09.223Z,5.80
2018-03-27T21:12:35.530Z,5.80
2018-03-27T21:15:01.799Z,5.80
2018-03-27T21:17:28.106Z,5.80
2018-03-27T21:19:54.576Z,5.90
2018-03-27T21:22:21.456Z,5.90
2018-03-27T21:24:49.123Z,5.90
2018-03-27T21:27:15.514Z,5.90
2018-03-27T21:29:41.846Z,5.80
2018-03-27T21:32:08.152Z,5.80
2018-03-27T21:34:34.430Z,5.80
2018-03-27T21:37:00.735Z,5.70
2018-03-27T21:39:27.045Z,5.90
2018-03-27T21:41:54.126Z,6.00
2018-03-27T21:44:20.457Z,6.00
2018-03-27T21:46:47.012Z,6.00
2018-03-27T21:49:13.341Z,5.90
2018-03-27T21:51:40.418Z,5.90
2018-03-27T21:54:06.722Z,5.90
2018-03-27T21:56:33.034Z,6.00
2018-03-27T21:58:59.337Z,6.00
2018-03-27T22:01:26.357Z,5.90
2018-03-27T22:03:52.891Z,5.80
2018-03-27T22:06:24.130Z,5.80
2018-03-27T22:08:50.446Z,5.70
2018-03-27T22:11:16.717Z,5.70
2018-03-27T22:13:43.227Z,5.70
2018-03-27T22:16:09.502Z,5.90
2018-03-27T22:18:35.770Z,5.90
2018-03-27T22:21:02.783Z,6.00
2018-03-27T22:23:29.070Z,6.00
2018-03-27T22:25:55.373Z,5.90
2018-03-27T22:28:21.842Z,5.70
2018-03-27T22:30:48.158Z,5.70
2018-03-27T22:33:14.500Z,5.60
2018-03-27T22:35:40.878Z,5.60
2018-03-27T22:38:07.093Z,5.50
2018-03-27T22:40:33.417Z,5.50
2018-03-27T22:43:00.445Z,5.60
2018-03-27T22:45:26.786Z,5.60
2018-03-27T22:47:53.077Z,5.60
2018-03-27T22:50:19.371Z,5.60
2018-03-27T22:52:45.641Z,5.60
2018-03-27T22:55:12.645Z,5.60
2018-03-27T22:57:38.929Z,5.60
2018-03-27T23:00:05.959Z,5.70
2018-03-27T23:02:32.229Z,5.70
2018-03-27T23:04:58.473Z,5.80
2018-03-27T23:07:24.795Z,5.60
2018-03-27T23:09:51.062Z,5.50
2018-03-27T23:12:18.348Z,6.00
2018-03-27T23:14:44.899Z,6.00
2018-03-27T23:17:11.195Z,6.00
2018-03-27T23:19:37.466Z,6.30
2018-03-27T23:22:04.482Z,6.90
2018-03-27T23:24:30.825Z,6.90
2018-03-27T23:29:29.164Z,7.00
2018-03-27T23:31:56.241Z,6.60
2018-03-27T23:34:22.543Z,6.60
2018-03-27T23:36:48.845Z,6.20
2018-03-27T23:39:15.820Z,5.60
2018-03-27T23:41:42.902Z,5.60
2018-03-27T23:44:09.201Z,5.50
2018-03-27T23:46:36.218Z,5.80
2018-03-27T23:49:02.558Z,5.80
2018-03-27T23:51:28.818Z,5.70
2018-03-27T23:53:55.149Z,5.60
2018-03-27T23:56:21.457Z,5.80
2018-03-27T23:58:47.979Z,6.00
